sensor_id;sensor_type;location;lat;lon;timestamp;P1;durP1;ratioP1;P2;durP2;ratioP2
29814;SDS011;16708;50.426;7.664;2023-02-28T00:03:30;3.40;;;1.80;;
29814;SDS011;16708;50.426;7.664;2023-02-28T00:08:24;4.90;;;1.80;;
29814;SDS011;16708;50.426;7.664;2023-02-28T00:13:18;5.90;;;2.20;;
29814;SDS011;16708;50.426;7.664;2023-02-28T00:18:11;4.60;;;2.00;;
29814;SDS011;16708;50.426;7.664;2023-02-28T00:23:05;4.80;;;2.00;;
29814;SDS011;16708;50.426;7.664;2023-02-28T00:27:59;5.00;;;2.30;;
29814;SDS011;16708;50.426;7.664;2023-02-28T00:32:53;5.50;;;2.50;;
29814;SDS011;16708;50.426;7.664;2023-02-28T00:37:47;5.20;;;2.70;;
29814;SDS011;16708;50.426;7.664;2023-02-28T00:42:41;6.40;;;2.70;;
29814;SDS011;16708;50.426;7.664;2023-02-28T00:47:35;4.20;;;2.50;;
29814;SDS011;16708;50.426;7.664;2023-02-28T00:52:28;4.90;;;2.70;;
29814;SDS011;16708;50.426;7.664;2023-02-28T00:57:20;7.80;;;2.90;;
29814;SDS011;16708;50.426;7.664;2023-02-28T01:02:15;8.10;;;3.00;;
29814;SDS011;16708;50.426;7.664;2023-02-28T01:07:09;8.50;;;2.90;;
29814;SDS011;16708;50.426;7.664;2023-02-28T01:12:03;5.70;;;2.90;;
29814;SDS011;16708;50.426;7.664;2023-02-28T01:16:57;7.30;;;2.90;;
29814;SDS011;16708;50.426;7.664;2023-02-28T01:21:51;6.40;;;3.00;;
29814;SDS011;16708;50.426;7.664;2023-02-28T01:26:45;7.00;;;3.00;;
29814;SDS011;16708;50.426;7.664;2023-02-28T01:31:38;6.00;;;2.80;;
29814;SDS011;16708;50.426;7.664;2023-02-28T01:36:32;7.00;;;3.40;;
29814;SDS011;16708;50.426;7.664;2023-02-28T01:41:26;5.40;;;3.30;;
29814;SDS011;16708;50.426;7.664;2023-02-28T01:46:20;5.90;;;3.20;;
29814;SDS011;16708;50.426;7.664;2023-02-28T01:51:14;7.70;;;3.60;;
29814;SDS011;16708;50.426;7.664;2023-02-28T02:01:03;7.20;;;3.30;;
29814;SDS011;16708;50.426;7.664;2023-02-28T02:06:02;7.40;;;3.50;;
29814;SDS011;16708;50.426;7.664;2023-02-28T02:10:49;5.70;;;3.10;;
29814;SDS011;16708;50.426;7.664;2023-02-28T02:30:26;7.40;;;3.00;;
29814;SDS011;16708;50.426;7.664;2023-02-28T02:35:20;9.30;;;2.80;;
29814;SDS011;16708;50.426;7.664;2023-02-28T02:40:14;5.40;;;2.70;;
29814;SDS011;16708;50.426;7.664;2023-02-28T02:45:08;17.10;;;6.50;;
29814;SDS011;16708;50.426;7.664;2023-02-28T02:50:02;8.10;;;3.10;;
29814;SDS011;16708;50.426;7.664;2023-02-28T02:54:56;5.60;;;2.70;;
29814;SDS011;16708;50.426;7.664;2023-02-28T02:59:49;6.30;;;3.00;;
29814;SDS011;16708;50.426;7.664;2023-02-28T03:04:44;6.00;;;2.80;;
29814;SDS011;16708;50.426;7.664;2023-02-28T03:09:38;4.80;;;2.80;;
29814;SDS011;16708;50.426;7.664;2023-02-28T03:19:24;5.00;;;2.30;;
29814;SDS011;16708;50.426;7.664;2023-02-28T03:24:17;5.30;;;2.70;;
29814;SDS011;16708;50.426;7.664;2023-02-28T03:29:11;4.80;;;2.90;;
29814;SDS011;16708;50.426;7.664;2023-02-28T03:34:06;5.50;;;3.20;;
29814;SDS011;16708;50.426;7.664;2023-02-28T03:39:00;5.90;;;3.10;;
29814;SDS011;16708;50.426;7.664;2023-02-28T03:43:54;6.00;;;3.30;;
29814;SDS011;16708;50.426;7.664;2023-02-28T03:48:48;5.40;;;2.90;;
29814;SDS011;16708;50.426;7.664;2023-02-28T03:53:46;7.00;;;3.10;;
29814;SDS011;16708;50.426;7.664;2023-02-28T03:58:36;6.80;;;3.20;;
29814;SDS011;16708;50.426;7.664;2023-02-28T04:03:30;5.60;;;3.00;;
29814;SDS011;16708;50.426;7.664;2023-02-28T04:08:24;4.90;;;2.90;;
29814;SDS011;16708;50.426;7.664;2023-02-28T04:13:18;6.20;;;3.00;;
29814;SDS011;16708;50.426;7.664;2023-02-28T04:18:11;4.80;;;2.80;;
29814;SDS011;16708;50.426;7.664;2023-02-28T04:23:05;8.50;;;3.10;;
29814;SDS011;16708;50.426;7.664;2023-02-28T04:27:58;11.20;;;3.40;;
29814;SDS011;16708;50.426;7.664;2023-02-28T04:32:52;7.20;;;3.50;;
29814;SDS011;16708;50.426;7.664;2023-02-28T04:37:46;8.50;;;3.70;;
29814;SDS011;16708;50.426;7.664;2023-02-28T04:42:38;11.70;;;4.10;;
29814;SDS011;16708;50.426;7.664;2023-02-28T04:47:32;13.70;;;4.50;;
29814;SDS011;16708;50.426;7.664;2023-02-28T04:52:26;11.80;;;5.20;;
29814;SDS011;16708;50.426;7.664;2023-02-28T04:57:20;12.50;;;4.50;;
29814;SDS011;16708;50.426;7.664;2023-02-28T05:02:13;15.70;;;4.50;;
29814;SDS011;16708;50.426;7.664;2023-02-28T05:07:07;15.20;;;4.90;;
29814;SDS011;16708;50.426;7.664;2023-02-28T05:12:02;13.10;;;4.70;;
29814;SDS011;16708;50.426;7.664;2023-02-28T05:16:54;11.50;;;4.30;;
29814;SDS011;16708;50.426;7.664;2023-02-28T05:21:50;10.30;;;4.30;;
29814;SDS011;16708;50.426;7.664;2023-02-28T05:26:40;9.50;;;4.10;;
29814;SDS011;16708;50.426;7.664;2023-02-28T05:31:34;8.90;;;4.40;;
29814;SDS011;16708;50.426;7.664;2023-02-28T05:36:29;9.00;;;4.40;;
29814;SDS011;16708;50.426;7.664;2023-02-28T05:41:23;6.80;;;3.70;;
29814;SDS011;16708;50.426;7.664;2023-02-28T05:46:17;8.70;;;3.60;;
29814;SDS011;16708;50.426;7.664;2023-02-28T05:51:08;11.40;;;5.20;;
29814;SDS011;16708;50.426;7.664;2023-02-28T05:56:02;14.80;;;5.60;;
29814;SDS011;16708;50.426;7.664;2023-02-28T06:00:56;8.60;;;4.50;;
29814;SDS011;16708;50.426;7.664;2023-02-28T06:05:50;11.80;;;5.00;;
29814;SDS011;16708;50.426;7.664;2023-02-28T06:10:45;12.60;;;5.00;;
29814;SDS011;16708;50.426;7.664;2023-02-28T06:15:39;9.00;;;4.50;;
29814;SDS011;16708;50.426;7.664;2023-02-28T06:20:33;9.70;;;4.70;;
29814;SDS011;16708;50.426;7.664;2023-02-28T06:25:27;12.00;;;4.70;;
29814;SDS011;16708;50.426;7.664;2023-02-28T06:30:21;9.60;;;4.70;;
29814;SDS011;16708;50.426;7.664;2023-02-28T06:35:14;13.70;;;5.20;;
29814;SDS011;16708;50.426;7.664;2023-02-28T06:40:09;9.10;;;4.30;;
29814;SDS011;16708;50.426;7.664;2023-02-28T06:45:03;9.10;;;3.90;;
29814;SDS011;16708;50.426;7.664;2023-02-28T06:49:56;11.50;;;4.30;;
29814;SDS011;16708;50.426;7.664;2023-02-28T06:54:50;8.00;;;3.90;;
29814;SDS011;16708;50.426;7.664;2023-02-28T06:59:44;6.60;;;3.60;;
29814;SDS011;16708;50.426;7.664;2023-02-28T07:04:37;9.90;;;4.10;;
29814;SDS011;16708;50.426;7.664;2023-02-28T07:09:32;9.80;;;4.60;;
29814;SDS011;16708;50.426;7.664;2023-02-28T07:14:26;10.30;;;4.60;;
29814;SDS011;16708;50.426;7.664;2023-02-28T07:19:20;11.50;;;4.70;;
29814;SDS011;16708;50.426;7.664;2023-02-28T07:24:14;11.00;;;4.90;;
29814;SDS011;16708;50.426;7.664;2023-02-28T07:29:07;13.80;;;5.00;;
29814;SDS011;16708;50.426;7.664;2023-02-28T07:34:02;10.20;;;5.00;;
29814;SDS011;16708;50.426;7.664;2023-02-28T07:38:56;11.40;;;4.80;;
29814;SDS011;16708;50.426;7.664;2023-02-28T07:43:50;10.00;;;4.00;;
29814;SDS011;16708;50.426;7.664;2023-02-28T07:48:43;13.40;;;4.80;;
29814;SDS011;16708;50.426;7.664;2023-02-28T07:53:37;10.40;;;4.30;;
29814;SDS011;16708;50.426;7.664;2023-02-28T07:58:47;9.50;;;3.40;;
29814;SDS011;16708;50.426;7.664;2023-02-28T08:03:26;8.60;;;3.90;;
29814;SDS011;16708;50.426;7.664;2023-02-28T08:08:20;13.20;;;4.10;;
29814;SDS011;16708;50.426;7.664;2023-02-28T08:13:10;7.40;;;3.20;;
29814;SDS011;16708;50.426;7.664;2023-02-28T08:18:04;8.60;;;3.30;;
29814;SDS011;16708;50.426;7.664;2023-02-28T08:22:58;5.20;;;2.60;;
29814;SDS011;16708;50.426;7.664;2023-02-28T08:27:51;4.60;;;1.90;;
29814;SDS011;16708;50.426;7.664;2023-02-28T08:32:46;3.00;;;1.80;;
29814;SDS011;16708;50.426;7.664;2023-02-28T08:37:40;3.10;;;1.90;;
29814;SDS011;16708;50.426;7.664;2023-02-28T08:42:35;4.50;;;1.80;;
29814;SDS011;16708;50.426;7.664;2023-02-28T08:47:29;2.90;;;1.60;;
29814;SDS011;16708;50.426;7.664;2023-02-28T08:52:23;3.40;;;1.90;;
29814;SDS011;16708;50.426;7.664;2023-02-28T08:57:17;4.40;;;1.90;;
29814;SDS011;16708;50.426;7.664;2023-02-28T09:02:10;4.80;;;1.80;;
29814;SDS011;16708;50.426;7.664;2023-02-28T09:07:04;4.10;;;1.80;;
29814;SDS011;16708;50.426;7.664;2023-02-28T09:11:59;3.80;;;1.90;;
29814;SDS011;16708;50.426;7.664;2023-02-28T09:16:54;4.80;;;1.60;;
29814;SDS011;16708;50.426;7.664;2023-02-28T09:21:50;2.80;;;1.70;;
29814;SDS011;16708;50.426;7.664;2023-02-28T09:26:45;6.40;;;2.20;;
29814;SDS011;16708;50.426;7.664;2023-02-28T09:31:41;3.90;;;2.00;;
29814;SDS011;16708;50.426;7.664;2023-02-28T09:36:39;3.10;;;1.80;;
29814;SDS011;16708;50.426;7.664;2023-02-28T09:41:30;3.60;;;1.90;;
29814;SDS011;16708;50.426;7.664;2023-02-28T09:46:25;2.90;;;1.60;;
29814;SDS011;16708;50.426;7.664;2023-02-28T09:51:17;2.70;;;1.60;;
29814;SDS011;16708;50.426;7.664;2023-02-28T09:56:12;3.90;;;1.80;;
29814;SDS011;16708;50.426;7.664;2023-02-28T10:01:06;3.80;;;1.70;;
29814;SDS011;16708;50.426;7.664;2023-02-28T10:06:01;3.30;;;1.80;;
29814;SDS011;16708;50.426;7.664;2023-02-28T10:10:56;2.50;;;1.80;;
29814;SDS011;16708;50.426;7.664;2023-02-28T10:15:51;3.60;;;2.00;;
29814;SDS011;16708;50.426;7.664;2023-02-28T10:20:45;4.50;;;2.30;;
29814;SDS011;16708;50.426;7.664;2023-02-28T10:25:40;3.10;;;2.10;;
29814;SDS011;16708;50.426;7.664;2023-02-28T10:30:35;4.20;;;2.10;;
29814;SDS011;16708;50.426;7.664;2023-02-28T10:35:30;4.20;;;2.50;;
29814;SDS011;16708;50.426;7.664;2023-02-28T10:45:17;7.20;;;2.50;;
29814;SDS011;16708;50.426;7.664;2023-02-28T10:59:53;5.20;;;2.30;;
29814;SDS011;16708;50.426;7.664;2023-02-28T11:04:48;4.70;;;2.70;;
29814;SDS011;16708;50.426;7.664;2023-02-28T11:09:44;2.90;;;2.00;;
29814;SDS011;16708;50.426;7.664;2023-02-28T11:14:41;3.00;;;2.00;;
29814;SDS011;16708;50.426;7.664;2023-02-28T11:19:37;4.70;;;2.10;;
29814;SDS011;16708;50.426;7.664;2023-02-28T11:24:32;4.00;;;2.10;;
29814;SDS011;16708;50.426;7.664;2023-02-28T11:29:28;3.80;;;2.30;;
29814;SDS011;16708;50.426;7.664;2023-02-28T11:34:22;3.70;;;2.10;;
29814;SDS011;16708;50.426;7.664;2023-02-28T11:39:16;3.70;;;2.70;;
29814;SDS011;16708;50.426;7.664;2023-02-28T11:58:54;3.40;;;2.50;;
29814;SDS011;16708;50.426;7.664;2023-02-28T12:08:42;3.50;;;2.30;;
29814;SDS011;16708;50.426;7.664;2023-02-28T12:18:29;2.80;;;2.20;;
29814;SDS011;16708;50.426;7.664;2023-02-28T12:28:17;3.80;;;2.60;;
29814;SDS011;16708;50.426;7.664;2023-02-28T12:33:11;4.50;;;2.70;;
29814;SDS011;16708;50.426;7.664;2023-02-28T12:38:05;3.80;;;2.80;;
29814;SDS011;16708;50.426;7.664;2023-02-28T12:43:00;4.90;;;2.90;;
29814;SDS011;16708;50.426;7.664;2023-02-28T12:47:54;3.80;;;2.90;;
29814;SDS011;16708;50.426;7.664;2023-02-28T12:52:48;4.00;;;3.00;;
29814;SDS011;16708;50.426;7.664;2023-02-28T12:57:43;3.10;;;2.60;;
29814;SDS011;16708;50.426;7.664;2023-02-28T13:07:31;3.40;;;2.90;;
29814;SDS011;16708;50.426;7.664;2023-02-28T13:12:26;3.70;;;3.00;;
29814;SDS011;16708;50.426;7.664;2023-02-28T13:17:20;3.90;;;3.20;;
29814;SDS011;16708;50.426;7.664;2023-02-28T13:22:14;3.70;;;2.90;;
29814;SDS011;16708;50.426;7.664;2023-02-28T13:56:31;4.70;;;3.60;;
29814;SDS011;16708;50.426;7.664;2023-02-28T14:01:25;5.30;;;3.60;;
29814;SDS011;16708;50.426;7.664;2023-02-28T14:06:18;3.80;;;3.40;;
29814;SDS011;16708;50.426;7.664;2023-02-28T14:11:13;4.90;;;4.00;;
29814;SDS011;16708;50.426;7.664;2023-02-28T14:16:07;4.00;;;3.40;;
29814;SDS011;16708;50.426;7.664;2023-02-28T14:30:46;5.50;;;4.00;;
29814;SDS011;16708;50.426;7.664;2023-02-28T14:35:41;6.00;;;4.40;;
29814;SDS011;16708;50.426;7.664;2023-02-28T14:40:33;5.40;;;3.70;;
29814;SDS011;16708;50.426;7.664;2023-02-28T14:45:27;4.70;;;3.90;;
29814;SDS011;16708;50.426;7.664;2023-02-28T14:50:21;6.30;;;4.30;;
29814;SDS011;16708;50.426;7.664;2023-02-28T14:55:16;4.50;;;3.80;;
29814;SDS011;16708;50.426;7.664;2023-02-28T15:00:10;6.10;;;4.10;;
29814;SDS011;16708;50.426;7.664;2023-02-28T15:09:58;6.20;;;4.00;;
29814;SDS011;16708;50.426;7.664;2023-02-28T15:14:52;5.50;;;3.90;;
29814;SDS011;16708;50.426;7.664;2023-02-28T15:19:46;4.30;;;3.40;;
29814;SDS011;16708;50.426;7.664;2023-02-28T15:24:41;4.70;;;3.80;;
29814;SDS011;16708;50.426;7.664;2023-02-28T15:29:34;5.20;;;3.80;;
29814;SDS011;16708;50.426;7.664;2023-02-28T15:39:23;6.00;;;3.60;;
29814;SDS011;16708;50.426;7.664;2023-02-28T15:44:17;5.70;;;4.00;;
29814;SDS011;16708;50.426;7.664;2023-02-28T15:49:11;5.30;;;3.80;;
29814;SDS011;16708;50.426;7.664;2023-02-28T15:58:57;6.40;;;3.60;;
29814;SDS011;16708;50.426;7.664;2023-02-28T16:08:46;6.10;;;3.40;;
29814;SDS011;16708;50.426;7.664;2023-02-28T16:13:40;5.20;;;3.20;;
29814;SDS011;16708;50.426;7.664;2023-02-28T16:18:33;5.60;;;3.30;;
29814;SDS011;16708;50.426;7.664;2023-02-28T16:23:26;4.70;;;3.20;;
29814;SDS011;16708;50.426;7.664;2023-02-28T16:28:19;4.90;;;3.40;;
29814;SDS011;16708;50.426;7.664;2023-02-28T16:33:13;5.40;;;3.00;;
29814;SDS011;16708;50.426;7.664;2023-02-28T16:38:07;5.10;;;3.50;;
29814;SDS011;16708;50.426;7.664;2023-02-28T16:43:01;6.00;;;3.40;;
29814;SDS011;16708;50.426;7.664;2023-02-28T16:47:54;6.50;;;3.40;;
29814;SDS011;16708;50.426;7.664;2023-02-28T16:52:47;7.40;;;4.00;;
29814;SDS011;16708;50.426;7.664;2023-02-28T16:57:39;6.90;;;3.60;;
29814;SDS011;16708;50.426;7.664;2023-02-28T17:02:33;7.30;;;3.70;;
29814;SDS011;16708;50.426;7.664;2023-02-28T17:12:20;10.50;;;3.70;;
29814;SDS011;16708;50.426;7.664;2023-02-28T17:17:14;6.20;;;3.70;;
29814;SDS011;16708;50.426;7.664;2023-02-28T17:22:08;8.90;;;3.60;;
29814;SDS011;16708;50.426;7.664;2023-02-28T17:27:02;9.00;;;4.10;;
29814;SDS011;16708;50.426;7.664;2023-02-28T17:31:56;10.20;;;4.10;;
29814;SDS011;16708;50.426;7.664;2023-02-28T17:36:50;12.10;;;5.30;;
29814;SDS011;16708;50.426;7.664;2023-02-28T17:41:44;11.10;;;5.80;;
29814;SDS011;16708;50.426;7.664;2023-02-28T17:46:37;7.60;;;4.50;;
29814;SDS011;16708;50.426;7.664;2023-02-28T17:51:31;7.30;;;4.10;;
29814;SDS011;16708;50.426;7.664;2023-02-28T17:56:25;8.80;;;4.80;;
29814;SDS011;16708;50.426;7.664;2023-02-28T18:01:19;14.00;;;6.20;;
29814;SDS011;16708;50.426;7.664;2023-02-28T18:06:13;12.00;;;5.50;;
29814;SDS011;16708;50.426;7.664;2023-02-28T18:11:05;10.40;;;5.40;;
29814;SDS011;16708;50.426;7.664;2023-02-28T18:15:59;15.20;;;6.80;;
29814;SDS011;16708;50.426;7.664;2023-02-28T18:20:52;17.20;;;7.50;;
29814;SDS011;16708;50.426;7.664;2023-02-28T18:25:46;24.80;;;9.30;;
29814;SDS011;16708;50.426;7.664;2023-02-28T18:30:39;12.70;;;6.60;;
29814;SDS011;16708;50.426;7.664;2023-02-28T18:35:32;12.90;;;6.00;;
29814;SDS011;16708;50.426;7.664;2023-02-28T18:40:26;11.40;;;5.90;;
29814;SDS011;16708;50.426;7.664;2023-02-28T18:45:20;11.40;;;5.60;;
29814;SDS011;16708;50.426;7.664;2023-02-28T18:50:14;11.80;;;5.90;;
29814;SDS011;16708;50.426;7.664;2023-02-28T18:55:08;15.90;;;6.00;;
29814;SDS011;16708;50.426;7.664;2023-02-28T19:00:02;14.90;;;6.10;;
29814;SDS011;16708;50.426;7.664;2023-02-28T19:04:56;15.30;;;6.20;;
29814;SDS011;16708;50.426;7.664;2023-02-28T19:09:50;16.60;;;7.20;;
29814;SDS011;16708;50.426;7.664;2023-02-28T19:14:45;24.00;;;7.90;;
29814;SDS011;16708;50.426;7.664;2023-02-28T19:19:36;28.40;;;10.50;;
29814;SDS011;16708;50.426;7.664;2023-02-28T19:24:30;27.80;;;10.00;;
29814;SDS011;16708;50.426;7.664;2023-02-28T19:29:23;36.10;;;13.20;;
29814;SDS011;16708;50.426;7.664;2023-02-28T19:34:16;33.40;;;12.20;;
29814;SDS011;16708;50.426;7.664;2023-02-28T19:39:11;25.10;;;9.70;;
29814;SDS011;16708;50.426;7.664;2023-02-28T19:44:03;21.40;;;8.40;;
29814;SDS011;16708;50.426;7.664;2023-02-28T19:48:57;16.70;;;6.30;;
29814;SDS011;16708;50.426;7.664;2023-02-28T19:53:50;16.40;;;6.40;;
29814;SDS011;16708;50.426;7.664;2023-02-28T19:58:44;26.80;;;8.30;;
29814;SDS011;16708;50.426;7.664;2023-02-28T20:03:36;22.70;;;7.80;;
29814;SDS011;16708;50.426;7.664;2023-02-28T20:08:30;21.80;;;8.10;;
29814;SDS011;16708;50.426;7.664;2023-02-28T20:13:25;18.30;;;7.40;;
29814;SDS011;16708;50.426;7.664;2023-02-28T20:18:19;17.90;;;7.00;;
29814;SDS011;16708;50.426;7.664;2023-02-28T20:23:12;22.10;;;8.50;;
29814;SDS011;16708;50.426;7.664;2023-02-28T20:28:06;18.60;;;7.90;;
29814;SDS011;16708;50.426;7.664;2023-02-28T20:33:00;21.00;;;9.30;;
29814;SDS011;16708;50.426;7.664;2023-02-28T20:37:57;18.70;;;7.90;;
29814;SDS011;16708;50.426;7.664;2023-02-28T20:42:43;18.80;;;8.20;;
29814;SDS011;16708;50.426;7.664;2023-02-28T20:47:37;23.40;;;7.90;;
29814;SDS011;16708;50.426;7.664;2023-02-28T20:52:30;17.10;;;7.60;;
29814;SDS011;16708;50.426;7.664;2023-02-28T20:57:24;17.10;;;7.70;;
29814;SDS011;16708;50.426;7.664;2023-02-28T21:02:14;21.90;;;8.20;;
29814;SDS011;16708;50.426;7.664;2023-02-28T21:07:08;18.00;;;7.60;;
29814;SDS011;16708;50.426;7.664;2023-02-28T21:12:01;13.80;;;6.60;;
29814;SDS011;16708;50.426;7.664;2023-02-28T21:16:54;13.90;;;6.10;;
29814;SDS011;16708;50.426;7.664;2023-02-28T21:21:47;13.70;;;5.70;;
29814;SDS011;16708;50.426;7.664;2023-02-28T21:26:40;13.10;;;6.30;;
29814;SDS011;16708;50.426;7.664;2023-02-28T21:31:33;12.70;;;6.20;;
29814;SDS011;16708;50.426;7.664;2023-02-28T21:36:25;16.80;;;6.80;;
29814;SDS011;16708;50.426;7.664;2023-02-28T21:41:17;12.80;;;5.90;;
29814;SDS011;16708;50.426;7.664;2023-02-28T21:46:11;11.40;;;5.90;;
29814;SDS011;16708;50.426;7.664;2023-02-28T21:51:05;11.50;;;6.00;;
29814;SDS011;16708;50.426;7.664;2023-02-28T21:55:57;13.50;;;6.40;;
29814;SDS011;16708;50.426;7.664;2023-02-28T22:00:49;13.90;;;6.40;;
29814;SDS011;16708;50.426;7.664;2023-02-28T22:05:43;13.60;;;5.90;;
29814;SDS011;16708;50.426;7.664;2023-02-28T22:10:36;11.50;;;6.00;;
29814;SDS011;16708;50.426;7.664;2023-02-28T22:15:29;13.50;;;6.60;;
29814;SDS011;16708;50.426;7.664;2023-02-28T22:20:20;14.10;;;6.80;;
29814;SDS011;16708;50.426;7.664;2023-02-28T22:25:11;13.20;;;6.60;;
29814;SDS011;16708;50.426;7.664;2023-02-28T22:30:02;13.80;;;6.40;;
29814;SDS011;16708;50.426;7.664;2023-02-28T22:34:56;12.20;;;6.30;;
29814;SDS011;16708;50.426;7.664;2023-02-28T22:39:46;13.00;;;6.70;;
29814;SDS011;16708;50.426;7.664;2023-02-28T22:44:39;14.60;;;7.40;;
29814;SDS011;16708;50.426;7.664;2023-02-28T22:49:31;16.90;;;7.00;;
29814;SDS011;16708;50.426;7.664;2023-02-28T22:54:24;14.30;;;6.90;;
29814;SDS011;16708;50.426;7.664;2023-02-28T22:59:17;16.50;;;7.90;;
29814;SDS011;16708;50.426;7.664;2023-02-28T23:04:12;15.50;;;7.10;;
29814;SDS011;16708;50.426;7.664;2023-02-28T23:09:04;15.60;;;8.00;;
29814;SDS011;16708;50.426;7.664;2023-02-28T23:13:58;16.50;;;7.70;;
29814;SDS011;16708;50.426;7.664;2023-02-28T23:18:51;13.90;;;7.10;;
29814;SDS011;16708;50.426;7.664;2023-02-28T23:23:44;17.00;;;8.00;;
29814;SDS011;16708;50.426;7.664;2023-02-28T23:28:38;18.60;;;7.90;;
29814;SDS011;16708;50.426;7.664;2023-02-28T23:33:32;15.60;;;7.60;;
29814;SDS011;16708;50.426;7.664;2023-02-28T23:38:25;14.60;;;7.10;;
29814;SDS011;16708;50.426;7.664;2023-02-28T23:43:19;16.80;;;8.30;;
29814;SDS011;16708;50.426;7.664;2023-02-28T23:48:10;17.20;;;8.10;;
29814;SDS011;16708;50.426;7.664;2023-02-28T23:53:04;20.70;;;8.10;;
29814;SDS011;16708;50.426;7.664;2023-02-28T23:57:58;19.40;;;8.60;;
